CheckWX is a tool to help pilots better visualize weather data.  It is not intended as a substitute for an official pre-flight weather briefing.

20:29:34 UTC

DABS METAR
Cheikh Larbi Tébessi Airport
Tébessi, Algeria
Current

30 mins ago

DABS 202000Z 06014KT 8000 NSC 13/09 Q1013
Observed
Apr-20 @ 20:00 UTC
Wind
  • 060° at 14 KTS
Visibility
7,998 meters
Flight Rules
MVFR
Cloud Levels
  • Clear skies
Temperature
13°C / 55°F
Dewpoint
C / 48°F
Humidity
77%
Altimeter
29.91" Hg
Pressure
1012.92 hPa
Previous

1 hour ago

DABS 201900Z 08019KT 8000 NSC 14/09 Q1012
Observed
Apr-20 @ 19:00 UTC
Wind
  • 080° at 19 KTS
Visibility
7,998 meters
Flight Rules
MVFR
Cloud Levels
  • Clear skies
Temperature
14°C / 57°F
Dewpoint
C / 48°F
Humidity
72%
Altimeter
29.88" Hg
Pressure
1011.92 hPa
Previous

2 hours ago

DABS 201800Z 08017KT 8000 NSC 15/09 Q1011
Observed
Apr-20 @ 18:00 UTC
Wind
  • 080° at 17 KTS
Visibility
7,998 meters
Flight Rules
MVFR
Cloud Levels
  • Clear skies
Temperature
15°C / 59°F
Dewpoint
C / 48°F
Humidity
68%
Altimeter
29.85" Hg
Pressure
1010.92 hPa